createdAt,value
2023-12-20T00:01:10.392Z,11.73
2023-12-20T00:03:42.142Z,11.72
2023-12-20T00:06:14.044Z,11.69
2023-12-20T00:08:41.532Z,11.72
2023-12-20T00:11:09.050Z,11.73
2023-12-20T00:13:36.216Z,11.73
2023-12-20T00:16:03.477Z,11.77
2023-12-20T00:18:33.331Z,11.75
2023-12-20T00:21:00.440Z,11.76
2023-12-20T00:23:30.961Z,11.73
2023-12-20T00:25:58.026Z,11.71
2023-12-20T00:28:25.154Z,11.71
2023-12-20T00:30:52.463Z,11.70
2023-12-20T00:33:20.432Z,11.69
2023-12-20T00:35:47.535Z,11.66
2023-12-20T00:38:14.493Z,11.61
2023-12-20T00:40:41.451Z,11.57
2023-12-20T00:43:08.650Z,11.61
2023-12-20T00:45:38.662Z,11.58
2023-12-20T00:48:06.324Z,11.55
2023-12-20T00:50:33.472Z,11.56
2023-12-20T00:53:00.513Z,11.55
2023-12-20T00:55:27.676Z,11.55
2023-12-20T00:57:55.320Z,11.53
2023-12-20T01:00:22.854Z,11.51
2023-12-20T01:02:52.840Z,11.45
2023-12-20T01:05:20.711Z,11.40
2023-12-20T01:07:48.289Z,11.40
2023-12-20T01:10:15.401Z,11.45
2023-12-20T01:12:45.500Z,11.44
2023-12-20T01:15:12.947Z,11.47
2023-12-20T01:17:43.474Z,11.46
2023-12-20T01:20:11.184Z,11.47
2023-12-20T01:22:38.276Z,11.46
2023-12-20T01:25:07.266Z,11.46
2023-12-20T01:27:34.328Z,11.45
2023-12-20T01:30:01.377Z,11.45
2023-12-20T01:32:28.435Z,11.34
2023-12-20T01:34:57.586Z,11.35
2023-12-20T01:37:27.841Z,11.27
2023-12-20T01:39:55.409Z,11.23
2023-12-20T01:42:23.525Z,11.15
2023-12-20T01:44:50.583Z,11.06
2023-12-20T01:47:18.089Z,11.05
2023-12-20T01:49:45.566Z,10.97
2023-12-20T01:52:13.558Z,10.91
2023-12-20T01:54:43.041Z,10.87
2023-12-20T01:57:11.430Z,10.81
2023-12-20T01:59:40.720Z,10.70
2023-12-20T02:02:09.472Z,10.63
2023-12-20T02:04:37.145Z,10.52
2023-12-20T02:07:11.198Z,10.39
2023-12-20T02:09:39.725Z,10.31
2023-12-20T02:12:07.534Z,10.21
2023-12-20T02:14:34.559Z,10.16
2023-12-20T02:17:01.578Z,10.13
2023-12-20T02:19:28.875Z,10.07
2023-12-20T02:22:14.686Z,9.92
2023-12-20T02:24:42.490Z,9.85
2023-12-20T02:27:09.753Z,9.81
2023-12-20T02:29:37.455Z,9.77
2023-12-20T02:32:04.855Z,9.68
2023-12-20T02:34:32.156Z,9.61
2023-12-20T02:36:59.178Z,9.58
2023-12-20T02:39:26.270Z,9.59
2023-12-20T02:41:56.216Z,9.58
2023-12-20T02:44:23.463Z,9.50
2023-12-20T02:46:50.668Z,9.45
2023-12-20T02:49:17.685Z,9.29
2023-12-20T02:51:45.014Z,9.29
2023-12-20T02:54:12.231Z,9.25
2023-12-20T02:56:39.663Z,9.29
2023-12-20T02:59:07.301Z,9.28
2023-12-20T03:01:34.541Z,9.30
2023-12-20T03:04:02.487Z,9.26
2023-12-20T03:06:29.683Z,9.17
2023-12-20T03:08:56.814Z,9.11
2023-12-20T03:11:28.166Z,9.09
2023-12-20T03:13:55.572Z,9.00
2023-12-20T03:16:22.668Z,9.00
2023-12-20T03:18:49.979Z,9.01
2023-12-20T03:21:17.016Z,8.99
2023-12-20T03:23:44.597Z,8.95
2023-12-20T03:26:11.785Z,8.91
2023-12-20T03:28:38.759Z,8.86
2023-12-20T03:31:05.821Z,8.85
2023-12-20T03:33:33.081Z,8.84
2023-12-20T03:36:00.104Z,8.86
2023-12-20T03:38:27.218Z,8.83
2023-12-20T03:40:54.311Z,8.81
2023-12-20T03:43:21.589Z,8.73
2023-12-20T03:45:48.673Z,8.73
2023-12-20T03:48:15.812Z,8.75
2023-12-20T03:50:42.907Z,8.76
2023-12-20T03:53:10.170Z,8.70
2023-12-20T03:55:37.147Z,8.72
2023-12-20T03:58:04.444Z,8.74
2023-12-20T04:00:31.430Z,8.70
2023-12-20T04:02:58.499Z,8.73
2023-12-20T04:05:25.719Z,8.74
2023-12-20T04:07:52.894Z,8.74
2023-12-20T04:10:20.166Z,8.69
2023-12-20T04:12:47.334Z,8.71
2023-12-20T04:15:14.846Z,8.71
2023-12-20T04:17:42.063Z,8.74
2023-12-20T04:20:09.775Z,8.75
2023-12-20T04:22:36.877Z,8.62
2023-12-20T04:25:04.156Z,8.68
2023-12-20T04:27:31.492Z,8.74
2023-12-20T04:29:58.961Z,8.79
2023-12-20T04:32:25.983Z,8.87
2023-12-20T04:34:52.978Z,8.91
2023-12-20T04:37:20.103Z,8.95
2023-12-20T04:39:47.218Z,8.97
2023-12-20T04:42:14.243Z,9.02
2023-12-20T04:44:41.329Z,9.06
2023-12-20T04:47:08.308Z,9.12
2023-12-20T04:49:35.858Z,9.19
2023-12-20T04:52:03.000Z,9.28
2023-12-20T04:54:30.065Z,9.28
2023-12-20T04:56:57.163Z,9.32
2023-12-20T04:59:24.157Z,9.33
2023-12-20T05:01:51.383Z,9.35
2023-12-20T05:04:18.451Z,9.39
2023-12-20T05:06:45.571Z,9.42
2023-12-20T05:09:12.647Z,9.44
2023-12-20T05:11:40.514Z,9.50
2023-12-20T05:14:08.599Z,9.52
2023-12-20T05:16:35.656Z,9.51
2023-12-20T05:19:07.907Z,9.51
2023-12-20T05:21:35.275Z,9.51
2023-12-20T05:24:02.353Z,9.54
2023-12-20T05:26:30.857Z,9.50
2023-12-20T05:28:57.971Z,9.50
2023-12-20T05:31:25.015Z,9.48
2023-12-20T05:33:52.442Z,9.47
2023-12-20T05:36:20.255Z,9.51
2023-12-20T05:38:47.192Z,9.52
2023-12-20T05:41:14.793Z,9.53
2023-12-20T05:43:41.846Z,9.59
2023-12-20T05:46:11.064Z,9.58
2023-12-20T05:48:38.173Z,9.62
2023-12-20T05:51:05.699Z,9.66
2023-12-20T05:53:32.666Z,9.68
2023-12-20T05:55:59.666Z,9.69
2023-12-20T05:58:26.702Z,9.71
2023-12-20T06:00:53.814Z,9.73
2023-12-20T06:03:20.904Z,9.72
2023-12-20T06:05:47.902Z,9.76
2023-12-20T06:08:14.856Z,9.78
2023-12-20T06:10:41.882Z,9.78
2023-12-20T06:13:09.072Z,9.78
2023-12-20T06:15:36.854Z,9.82
2023-12-20T06:18:04.705Z,9.78
2023-12-20T06:20:31.806Z,9.74
2023-12-20T06:22:58.764Z,9.74
2023-12-20T06:25:26.596Z,9.71
2023-12-20T06:27:53.656Z,9.72
2023-12-20T06:30:20.977Z,9.70
2023-12-20T06:32:49.119Z,9.72
2023-12-20T06:35:16.410Z,9.74
2023-12-20T06:37:46.357Z,9.67
2023-12-20T06:40:17.727Z,9.69
2023-12-20T06:42:54.463Z,9.71
2023-12-20T06:45:26.507Z,9.72
2023-12-20T06:47:53.562Z,9.70
2023-12-20T06:50:20.748Z,9.74
2023-12-20T06:52:47.768Z,9.77
2023-12-20T06:55:14.990Z,9.78
2023-12-20T06:57:42.588Z,9.72
2023-12-20T07:00:10.269Z,9.62
2023-12-20T07:02:37.252Z,9.70
2023-12-20T07:05:04.850Z,9.67
2023-12-20T07:07:32.012Z,9.73
2023-12-20T07:09:59.296Z,9.73
2023-12-20T07:12:26.518Z,9.78
2023-12-20T07:14:53.570Z,9.80
2023-12-20T07:17:20.595Z,9.88
2023-12-20T07:19:48.029Z,9.88
2023-12-20T07:22:15.195Z,9.94
2023-12-20T07:24:42.448Z,9.95
2023-12-20T07:27:09.657Z,10.00
2023-12-20T07:29:36.820Z,10.13
2023-12-20T07:32:04.011Z,10.27
2023-12-20T07:34:32.607Z,10.58
2023-12-20T07:37:00.689Z,10.76
2023-12-20T07:39:27.861Z,10.86
2023-12-20T07:41:55.225Z,10.93
2023-12-20T07:44:22.631Z,10.93
2023-12-20T07:46:49.972Z,10.96
2023-12-20T07:49:17.208Z,10.87
2023-12-20T07:51:44.392Z,10.86
2023-12-20T07:54:11.731Z,10.82
2023-12-20T07:56:41.307Z,10.82
2023-12-20T07:59:15.654Z,10.97
2023-12-20T08:01:49.251Z,11.23
2023-12-20T08:04:16.431Z,11.55
2023-12-20T08:06:43.924Z,11.74
2023-12-20T08:09:11.721Z,12.11
2023-12-20T08:11:38.892Z,12.51
2023-12-20T08:14:05.870Z,13.09
2023-12-20T08:16:33.227Z,13.70
2023-12-20T08:19:00.509Z,14.18
2023-12-20T08:21:27.717Z,14.87
2023-12-20T08:23:54.838Z,15.37
2023-12-20T08:26:23.172Z,16.13
2023-12-20T08:28:50.414Z,16.62
2023-12-20T08:31:18.824Z,17.04
2023-12-20T08:33:46.750Z,17.42
2023-12-20T08:36:14.414Z,17.67
2023-12-20T08:38:41.662Z,18.10
2023-12-20T08:41:08.893Z,18.29
2023-12-20T08:43:36.958Z,18.51
2023-12-20T08:46:04.715Z,18.71
2023-12-20T08:48:32.020Z,18.89
2023-12-20T08:50:59.142Z,18.97
2023-12-20T08:53:26.455Z,19.19
2023-12-20T08:55:53.607Z,19.34
2023-12-20T08:58:20.705Z,19.46
2023-12-20T09:00:47.784Z,19.94
2023-12-20T09:03:14.873Z,20.24
2023-12-20T09:05:42.053Z,20.59
2023-12-20T09:08:11.264Z,21.12
2023-12-20T09:10:39.340Z,21.64
2023-12-20T09:13:06.487Z,21.91
2023-12-20T09:15:37.004Z,22.14
2023-12-20T09:18:05.198Z,22.43
2023-12-20T09:20:32.921Z,22.86
2023-12-20T09:23:00.192Z,23.01
2023-12-20T09:25:31.240Z,23.35
2023-12-20T09:27:58.868Z,23.79
2023-12-20T09:30:27.929Z,24.04
2023-12-20T09:32:58.735Z,24.53
2023-12-20T09:35:27.734Z,24.01
2023-12-20T09:37:54.941Z,23.46
2023-12-20T09:40:22.189Z,23.33
2023-12-20T09:42:57.633Z,23.12
2023-12-20T09:45:25.202Z,22.31
2023-12-20T09:47:54.746Z,21.95
2023-12-20T09:50:23.043Z,21.35
2023-12-20T09:52:54.690Z,20.76
2023-12-20T09:55:23.277Z,20.04
2023-12-20T09:57:50.936Z,19.20
2023-12-20T10:00:18.866Z,18.86
2023-12-20T10:03:07.656Z,18.43
2023-12-20T10:05:35.867Z,18.03
2023-12-20T10:08:04.481Z,17.65
2023-12-20T10:10:38.644Z,17.42
2023-12-20T10:13:14.818Z,17.11
2023-12-20T10:15:43.452Z,16.87
2023-12-20T10:18:11.102Z,16.50
2023-12-20T10:20:38.339Z,16.42
2023-12-20T10:23:05.711Z,16.16
2023-12-20T10:25:33.522Z,16.06
2023-12-20T10:28:12.332Z,15.93
2023-12-20T10:30:40.499Z,15.68
2023-12-20T10:33:12.242Z,15.58
2023-12-20T10:35:44.029Z,15.41
2023-12-20T10:38:15.316Z,15.21
2023-12-20T10:40:42.864Z,15.06
2023-12-20T10:43:10.908Z,15.05
2023-12-20T10:45:38.881Z,14.99
2023-12-20T10:48:06.627Z,15.04
2023-12-20T10:50:37.493Z,15.07
2023-12-20T10:53:05.146Z,15.18
2023-12-20T10:55:32.679Z,15.25
2023-12-20T10:58:08.081Z,15.43
2023-12-20T11:00:41.476Z,15.52
2023-12-20T11:03:10.589Z,15.78
2023-12-20T11:05:54.941Z,15.92
2023-12-20T11:08:27.696Z,16.07
2023-12-20T11:11:06.849Z,16.08
2023-12-20T11:13:45.531Z,15.97
2023-12-20T11:16:12.879Z,15.95
2023-12-20T11:18:42.101Z,16.00
2023-12-20T11:21:09.217Z,16.03
2023-12-20T11:23:37.368Z,16.00
2023-12-20T11:26:04.874Z,15.98
2023-12-20T11:28:32.167Z,15.84
2023-12-20T11:31:01.497Z,15.71
2023-12-20T11:33:32.912Z,15.61
2023-12-20T11:36:04.454Z,15.47
2023-12-20T11:38:38.931Z,15.51
2023-12-20T11:41:11.709Z,15.35
2023-12-20T11:43:40.359Z,15.30
2023-12-20T11:46:09.756Z,15.29
2023-12-20T11:48:39.480Z,15.25
2023-12-20T11:51:14.105Z,15.31
2023-12-20T11:53:41.948Z,15.22
2023-12-20T11:56:09.683Z,15.19
2023-12-20T11:58:37.548Z,15.17
2023-12-20T12:01:09.079Z,15.21
2023-12-20T12:03:37.305Z,15.22
2023-12-20T12:06:06.397Z,15.22
2023-12-20T12:08:33.820Z,15.17
2023-12-20T12:11:01.149Z,15.21
2023-12-20T12:13:29.268Z,15.24
2023-12-20T12:15:56.605Z,15.32
2023-12-20T12:18:23.961Z,15.35
2023-12-20T12:20:51.874Z,15.41
2023-12-20T12:23:25.607Z,15.43
2023-12-20T12:25:52.866Z,15.45
2023-12-20T12:28:19.940Z,15.44
2023-12-20T12:31:02.372Z,15.46
2023-12-20T12:33:29.789Z,15.43
2023-12-20T12:35:57.322Z,15.40
2023-12-20T12:38:25.849Z,15.44
2023-12-20T12:40:54.939Z,15.41
2023-12-20T12:43:24.287Z,15.36
2023-12-20T12:45:51.840Z,15.39
2023-12-20T12:48:19.172Z,15.44
2023-12-20T12:50:47.680Z,15.44
2023-12-20T12:53:14.814Z,15.42
2023-12-20T12:55:41.879Z,15.47
2023-12-20T12:58:09.012Z,15.51
2023-12-20T13:00:36.400Z,15.57
2023-12-20T13:03:03.945Z,15.61
2023-12-20T13:05:32.189Z,15.69
2023-12-20T13:08:00.158Z,15.89
2023-12-20T13:10:27.321Z,16.01
2023-12-20T13:12:54.511Z,16.12
2023-12-20T13:15:24.837Z,16.27
2023-12-20T13:17:53.549Z,16.41
2023-12-20T13:20:21.236Z,16.51
2023-12-20T13:22:48.509Z,16.58
2023-12-20T13:25:15.690Z,16.70
2023-12-20T13:27:43.217Z,16.85
2023-12-20T13:30:11.023Z,17.02
2023-12-20T13:32:38.384Z,17.21
2023-12-20T13:35:06.047Z,17.37
2023-12-20T13:37:33.514Z,17.56
2023-12-20T13:40:00.632Z,17.67
2023-12-20T13:42:28.596Z,17.77
2023-12-20T13:44:55.788Z,17.85
2023-12-20T13:47:25.188Z,17.96
2023-12-20T13:49:52.741Z,18.06
2023-12-20T13:52:20.249Z,18.16
2023-12-20T13:54:47.276Z,18.22
2023-12-20T13:57:22.180Z,18.30
2023-12-20T13:59:59.362Z,18.30
2023-12-20T14:02:28.622Z,18.30
2023-12-20T14:04:55.895Z,18.32
2023-12-20T14:07:23.255Z,18.30
2023-12-20T14:09:50.654Z,18.30
2023-12-20T14:12:17.825Z,18.28
2023-12-20T14:14:46.444Z,18.27
2023-12-20T14:17:13.909Z,18.26
2023-12-20T14:19:41.147Z,18.24
2023-12-20T14:22:08.338Z,18.23
2023-12-20T14:24:37.399Z,18.13
2023-12-20T14:27:04.571Z,18.09
2023-12-20T14:29:31.874Z,18.04
2023-12-20T14:31:58.933Z,18.03
2023-12-20T14:34:26.107Z,18.02
2023-12-20T14:36:54.349Z,17.95
2023-12-20T14:39:21.500Z,17.99
2023-12-20T14:41:48.509Z,17.98
2023-12-20T14:44:15.500Z,17.91
2023-12-20T14:46:42.696Z,17.92
2023-12-20T14:49:09.977Z,17.91
2023-12-20T14:51:38.806Z,17.93
2023-12-20T14:54:10.740Z,17.93
2023-12-20T14:56:39.003Z,17.92
2023-12-20T14:59:06.166Z,17.93
2023-12-20T15:01:33.342Z,17.93
2023-12-20T15:04:02.083Z,17.88
2023-12-20T15:06:29.221Z,17.86
2023-12-20T15:08:56.686Z,17.81
2023-12-20T15:11:23.841Z,17.77
2023-12-20T15:13:56.924Z,17.74
2023-12-20T15:16:25.652Z,17.69
2023-12-20T15:18:55.069Z,17.65
2023-12-20T15:21:31.489Z,17.58
2023-12-20T15:24:07.038Z,17.47
2023-12-20T15:26:34.943Z,17.35
2023-12-20T15:29:02.778Z,17.20
2023-12-20T15:31:29.840Z,17.11
2023-12-20T15:33:57.039Z,17.06
2023-12-20T15:36:24.249Z,17.02
2023-12-20T15:38:51.324Z,16.98
2023-12-20T15:41:22.852Z,16.92
2023-12-20T15:43:49.834Z,16.88
2023-12-20T15:46:17.323Z,16.80
2023-12-20T15:48:44.526Z,16.79
2023-12-20T15:51:11.695Z,16.75
2023-12-20T15:53:38.831Z,16.70
2023-12-20T15:56:06.648Z,16.65
2023-12-20T15:58:34.871Z,16.63
2023-12-20T16:01:01.976Z,16.61
2023-12-20T16:05:56.806Z,16.53
2023-12-20T16:08:23.829Z,16.48
2023-12-20T16:10:51.302Z,16.45
2023-12-20T16:13:18.518Z,16.42
2023-12-20T16:15:45.598Z,16.37
2023-12-20T16:18:13.213Z,16.35
2023-12-20T16:20:40.581Z,16.28
2023-12-20T16:23:07.998Z,16.22
2023-12-20T16:25:39.340Z,16.16
2023-12-20T16:28:06.985Z,16.10
2023-12-20T16:30:34.111Z,16.04
2023-12-20T16:33:01.418Z,15.98
2023-12-20T16:35:28.481Z,15.94
2023-12-20T16:37:55.713Z,15.88
2023-12-20T16:40:26.080Z,15.85
2023-12-20T16:42:53.975Z,15.79
2023-12-20T16:45:21.207Z,15.78
2023-12-20T16:47:48.620Z,15.74
2023-12-20T16:50:16.202Z,15.73
2023-12-20T16:52:43.778Z,15.66
2023-12-20T16:55:12.475Z,15.61
2023-12-20T16:57:40.226Z,15.57
2023-12-20T17:00:08.372Z,15.51
2023-12-20T17:02:35.635Z,15.49
2023-12-20T17:05:03.048Z,15.45
2023-12-20T17:07:30.570Z,15.42
2023-12-20T17:09:57.851Z,15.40
2023-12-20T17:12:26.454Z,15.35
2023-12-20T17:14:54.690Z,15.27
2023-12-20T17:17:22.604Z,15.21
2023-12-20T17:19:49.727Z,15.14
2023-12-20T17:22:16.970Z,15.08
2023-12-20T17:24:44.046Z,15.00
2023-12-20T17:27:11.697Z,14.92
2023-12-20T17:29:38.756Z,14.84
2023-12-20T17:32:06.744Z,14.79
2023-12-20T17:34:33.950Z,14.75
2023-12-20T17:37:04.272Z,14.68
2023-12-20T17:39:31.694Z,14.61
2023-12-20T17:41:58.741Z,14.57
2023-12-20T17:44:26.156Z,14.58
2023-12-20T17:46:53.624Z,14.53
2023-12-20T17:49:20.949Z,14.48
2023-12-20T17:51:48.554Z,14.48
2023-12-20T17:54:15.793Z,14.45
2023-12-20T17:56:42.812Z,14.40
2023-12-20T17:59:09.886Z,14.33
2023-12-20T18:01:37.535Z,14.30
2023-12-20T18:04:04.983Z,14.28
2023-12-20T18:06:32.170Z,14.28
2023-12-20T18:08:59.440Z,14.22
2023-12-20T18:11:26.922Z,14.20
2023-12-20T18:13:54.214Z,14.13
2023-12-20T18:16:21.326Z,14.14
2023-12-20T18:18:48.720Z,14.12
2023-12-20T18:21:15.990Z,14.09
2023-12-20T18:23:43.360Z,14.11
2023-12-20T18:26:10.439Z,14.04
2023-12-20T18:28:38.444Z,14.02
2023-12-20T18:31:06.948Z,13.99
2023-12-20T18:33:36.962Z,13.97
2023-12-20T18:36:05.383Z,13.93
2023-12-20T18:38:34.055Z,13.89
2023-12-20T18:41:01.801Z,13.83
2023-12-20T18:43:29.129Z,13.81
2023-12-20T18:45:58.430Z,13.68
2023-12-20T18:48:27.378Z,13.65
2023-12-20T18:50:54.494Z,13.60
2023-12-20T18:53:22.033Z,13.54
2023-12-20T18:55:49.156Z,13.50
2023-12-20T18:58:16.308Z,13.42
2023-12-20T19:00:43.479Z,13.34
2023-12-20T19:03:11.141Z,13.30
2023-12-20T19:05:38.701Z,13.21
2023-12-20T19:08:06.482Z,13.17
2023-12-20T19:10:33.649Z,13.13
2023-12-20T19:13:01.079Z,13.07
2023-12-20T19:15:28.307Z,12.98
2023-12-20T19:17:55.637Z,12.96
2023-12-20T19:20:22.998Z,12.92
2023-12-20T19:22:50.226Z,12.90
2023-12-20T19:25:17.466Z,12.87
2023-12-20T19:27:45.512Z,12.85
2023-12-20T19:30:14.833Z,12.80
2023-12-20T19:32:42.541Z,12.73
2023-12-20T19:35:10.447Z,12.71
2023-12-20T19:37:38.025Z,12.70
2023-12-20T19:40:06.313Z,12.68
2023-12-20T19:42:37.738Z,12.66
2023-12-20T19:45:09.206Z,12.65
2023-12-20T19:47:36.996Z,12.64
2023-12-20T19:50:05.586Z,12.61
2023-12-20T19:52:33.354Z,12.59
2023-12-20T19:55:00.768Z,12.57
2023-12-20T19:57:28.007Z,12.57
2023-12-20T19:59:55.679Z,12.57
2023-12-20T20:02:22.910Z,12.53
2023-12-20T20:04:50.029Z,12.50
2023-12-20T20:07:21.042Z,12.45
2023-12-20T20:09:48.212Z,12.40
2023-12-20T20:12:15.377Z,12.38
2023-12-20T20:14:42.458Z,12.34
2023-12-20T20:17:10.514Z,12.34
2023-12-20T20:19:37.846Z,12.34
2023-12-20T20:22:05.511Z,12.33
2023-12-20T20:24:32.637Z,12.31
2023-12-20T20:26:59.634Z,12.29
2023-12-20T20:29:26.643Z,12.24
2023-12-20T20:31:56.103Z,12.20
2023-12-20T20:34:29.118Z,12.14
2023-12-20T20:36:56.772Z,12.09
2023-12-20T20:39:24.486Z,12.05
2023-12-20T20:41:52.035Z,11.97
2023-12-20T20:44:19.121Z,11.93
2023-12-20T20:46:46.482Z,11.92
2023-12-20T20:49:14.100Z,11.90
2023-12-20T20:51:41.221Z,11.88
2023-12-20T20:54:16.234Z,11.82
2023-12-20T20:56:46.327Z,11.76
2023-12-20T20:59:13.792Z,11.68
2023-12-20T21:01:41.080Z,11.67
2023-12-20T21:04:09.132Z,11.62
2023-12-20T21:06:36.332Z,11.58
2023-12-20T21:09:03.716Z,11.55
2023-12-20T21:11:30.880Z,11.53
2023-12-20T21:13:58.421Z,11.51
2023-12-20T21:16:25.668Z,11.48
2023-12-20T21:18:52.748Z,11.43
2023-12-20T21:21:19.927Z,11.40
2023-12-20T21:23:46.921Z,11.38
2023-12-20T21:26:13.936Z,11.35
2023-12-20T21:28:41.093Z,11.23
2023-12-20T21:31:08.303Z,11.16
2023-12-20T21:33:35.482Z,11.12
2023-12-20T21:36:02.818Z,11.10
2023-12-20T21:38:29.912Z,11.07
2023-12-20T21:40:57.036Z,11.05
2023-12-20T21:43:24.382Z,11.00
2023-12-20T21:45:52.056Z,11.00
2023-12-20T21:48:19.389Z,10.98
2023-12-20T21:50:46.549Z,10.98
2023-12-20T21:53:13.529Z,10.98
2023-12-20T21:55:41.067Z,10.92
2023-12-20T21:58:09.771Z,10.94
2023-12-20T22:00:37.497Z,10.92
2023-12-20T22:03:09.576Z,10.88
2023-12-20T22:05:38.585Z,10.83
2023-12-20T22:08:07.254Z,10.83
2023-12-20T22:10:34.503Z,10.79
2023-12-20T22:13:07.326Z,10.80
2023-12-20T22:15:34.372Z,10.80
2023-12-20T22:18:01.517Z,10.80
2023-12-20T22:20:29.059Z,10.80
2023-12-20T22:22:56.114Z,10.81
2023-12-20T22:25:23.316Z,10.79
2023-12-20T22:27:50.648Z,10.78
2023-12-20T22:30:17.980Z,10.77
2023-12-20T22:32:45.105Z,10.80
2023-12-20T22:35:15.344Z,10.75
2023-12-20T22:37:45.955Z,10.76
2023-12-20T22:40:13.550Z,10.75
2023-12-20T22:42:41.196Z,10.71
2023-12-20T22:45:08.884Z,10.71
2023-12-20T22:47:35.908Z,10.71
2023-12-20T22:50:03.221Z,10.68
2023-12-20T22:52:30.917Z,10.66
2023-12-20T22:54:58.071Z,10.67
2023-12-20T22:57:25.406Z,10.67
2023-12-20T22:59:54.122Z,10.68
2023-12-20T23:02:21.297Z,10.68
2023-12-20T23:04:48.475Z,10.67
2023-12-20T23:07:15.740Z,10.63
2023-12-20T23:09:43.146Z,10.65
2023-12-20T23:12:10.204Z,10.65
2023-12-20T23:14:37.271Z,10.65
2023-12-20T23:17:04.668Z,10.62
2023-12-20T23:19:31.947Z,10.60
2023-12-20T23:21:59.162Z,10.57
2023-12-20T23:24:26.282Z,10.53
2023-12-20T23:26:53.380Z,10.48
2023-12-20T23:29:20.677Z,10.44
2023-12-20T23:31:47.809Z,10.34
2023-12-20T23:34:16.851Z,10.30
2023-12-20T23:36:45.306Z,10.28
2023-12-20T23:39:12.465Z,10.25
2023-12-20T23:41:39.613Z,10.19
2023-12-20T23:44:06.992Z,10.08
2023-12-20T23:46:34.092Z,10.09
2023-12-20T23:49:01.516Z,10.06
2023-12-20T23:51:28.629Z,10.04
2023-12-20T23:53:55.659Z,10.03
2023-12-20T23:56:30.499Z,10.04
2023-12-20T23:59:02.460Z,10.01
